WLF225 LGAV-LCLK
Flight info
| Callsign | WLF225 |
|---|---|
| Flight time | 1h 23m |
| Altitude | 37000 |
| Route | KEA UL995 RDS UM601 EVENO M601 BONEK |
| Aircraft | A320/M-SDE3FGHIRWY/LB1 |
Departure
| Time | 2026-05-04 22:49 |
|---|---|
| Airport | Athens Eleftherios Venizelos International Airport (LGAV) |
Arrival
| Time | 2026-05-05 00:13 |
|---|---|
| Airport | Larnaca International Airport (LCLK) |
| Time | Latitude | Longitude | Altitude | Speed | Heading |
|---|---|---|---|---|---|
| 2026-05-04 22:23 | 37.93024 | 23.94331 | 288 ft | 0 kts | 37° |
| 2026-05-04 22:42 | 37.93022 | 23.94330 | 288 ft | 2 kts | 37° |
| 2026-05-04 22:42 | 37.93002 | 23.94310 | 292 ft | 4 kts | 37° |
| 2026-05-04 22:42 | 37.92984 | 23.94292 | 288 ft | 2 kts | 37° |
| 2026-05-04 22:42 | 37.92965 | 23.94272 | 293 ft | 4 kts | 50° |
| 2026-05-04 22:43 | 37.92953 | 23.94245 | 293 ft | 4 kts | 97° |
| 2026-05-04 22:43 | 37.92956 | 23.94232 | 290 ft | 0 kts | 127° |
| 2026-05-04 22:45 | 37.92944 | 23.94251 | 288 ft | 6 kts | 127° |
| 2026-05-04 22:45 | 37.92919 | 23.94294 | 293 ft | 11 kts | 126° |
| 2026-05-04 22:46 | 37.92853 | 23.94404 | 289 ft | 12 kts | 126° |
| 2026-05-04 22:46 | 37.92794 | 23.94451 | 291 ft | 9 kts | 180° |
| 2026-05-04 22:46 | 37.92722 | 23.94397 | 295 ft | 14 kts | 219° |
| 2026-05-04 22:46 | 37.92643 | 23.94320 | 296 ft | 14 kts | 217° |
| 2026-05-04 22:47 | 37.92557 | 23.94298 | 295 ft | 13 kts | 147° |
| 2026-05-04 22:47 | 37.92505 | 23.94379 | 295 ft | 11 kts | 125° |
| 2026-05-04 22:47 | 37.92496 | 23.94463 | 294 ft | 9 kts | 58° |
| 2026-05-04 22:47 | 37.92516 | 23.94484 | 292 ft | 0 kts | 38° |
| 2026-05-04 22:48 | 37.92588 | 23.94552 | 290 ft | 44 kts | 36° |
| 2026-05-04 22:49 | 37.93035 | 23.94973 | 284 ft | 112 kts | 37° |
| 2026-05-04 22:49 | 37.93805 | 23.95698 | 280 ft | 161 kts | 36° |
| 2026-05-04 22:49 | 37.94741 | 23.96593 | 742 ft | 172 kts | 38° |
| 2026-05-04 22:49 | 37.95719 | 23.97548 | 1300 ft | 184 kts | 38° |
| 2026-05-04 22:50 | 37.96753 | 23.98560 | 1812 ft | 197 kts | 37° |
| 2026-05-04 22:50 | 37.97884 | 23.99666 | 2265 ft | 213 kts | 37° |
| 2026-05-04 22:50 | 37.99142 | 24.00900 | 2699 ft | 237 kts | 35° |
| 2026-05-04 22:50 | 38.00457 | 24.02156 | 3684 ft | 235 kts | 34° |
| 2026-05-04 22:51 | 38.01753 | 24.03384 | 4658 ft | 236 kts | 33° |
| 2026-05-04 22:51 | 38.03093 | 24.04653 | 5604 ft | 238 kts | 33° |
| 2026-05-04 22:51 | 38.04400 | 24.05899 | 6544 ft | 239 kts | 32° |
| 2026-05-04 22:51 | 38.05729 | 24.07171 | 7477 ft | 239 kts | 32° |
| 2026-05-04 22:52 | 38.07050 | 24.08475 | 8358 ft | 243 kts | 38° |
| 2026-05-04 22:52 | 38.08070 | 24.10248 | 9163 ft | 258 kts | 60° |
| 2026-05-04 22:52 | 38.08517 | 24.12510 | 9908 ft | 277 kts | 81° |
| 2026-05-04 22:52 | 38.08234 | 24.15030 | 10373 ft | 303 kts | 103° |
| 2026-05-04 22:53 | 38.07362 | 24.17590 | 10616 ft | 332 kts | 117° |
| 2026-05-04 22:53 | 38.05808 | 24.19908 | 10847 ft | 361 kts | 139° |
| 2026-05-04 22:53 | 38.03531 | 24.21452 | 11050 ft | 384 kts | 164° |
| 2026-05-04 22:53 | 38.00862 | 24.21996 | 11572 ft | 393 kts | 174° |
| 2026-05-04 22:54 | 37.98130 | 24.22413 | 12268 ft | 397 kts | 173° |
| 2026-05-04 22:54 | 37.95377 | 24.22871 | 12969 ft | 401 kts | 173° |
| 2026-05-04 22:54 | 37.92600 | 24.23365 | 13660 ft | 405 kts | 172° |
| 2026-05-04 22:54 | 37.89795 | 24.23879 | 14299 ft | 409 kts | 172° |
| 2026-05-04 22:55 | 37.86964 | 24.24397 | 14896 ft | 413 kts | 172° |
| 2026-05-04 22:55 | 37.84104 | 24.24912 | 15477 ft | 417 kts | 173° |
| 2026-05-04 22:55 | 37.81218 | 24.25423 | 16072 ft | 420 kts | 173° |
| 2026-05-04 22:55 | 37.78313 | 24.25929 | 16652 ft | 423 kts | 173° |
| 2026-05-04 22:56 | 37.75386 | 24.26436 | 17223 ft | 426 kts | 173° |
| 2026-05-04 22:56 | 37.72435 | 24.26946 | 17796 ft | 429 kts | 173° |
| 2026-05-04 22:56 | 37.69467 | 24.27460 | 18366 ft | 432 kts | 173° |
| 2026-05-04 22:56 | 37.66477 | 24.27980 | 18854 ft | 435 kts | 173° |
| 2026-05-04 22:57 | 37.63480 | 24.28610 | 19304 ft | 440 kts | 166° |
| 2026-05-04 22:57 | 37.60586 | 24.29914 | 19745 ft | 444 kts | 154° |
| 2026-05-04 22:57 | 37.57982 | 24.31926 | 20167 ft | 446 kts | 141° |
| 2026-05-04 22:57 | 37.55726 | 24.34611 | 20574 ft | 447 kts | 128° |
| 2026-05-04 22:58 | 37.53954 | 24.37824 | 21013 ft | 446 kts | 116° |
| 2026-05-04 22:58 | 37.52732 | 24.41400 | 21542 ft | 443 kts | 105° |
| 2026-05-04 22:58 | 37.51776 | 24.45086 | 22091 ft | 443 kts | 105° |
| 2026-05-04 22:58 | 37.50813 | 24.48779 | 22562 ft | 445 kts | 105° |
| 2026-05-04 22:59 | 37.49838 | 24.52495 | 22991 ft | 447 kts | 106° |
| 2026-05-04 22:59 | 37.48859 | 24.56222 | 23409 ft | 450 kts | 106° |
| 2026-05-04 22:59 | 37.47874 | 24.59972 | 23802 ft | 452 kts | 106° |
| 2026-05-04 22:59 | 37.46885 | 24.63741 | 24125 ft | 455 kts | 106° |
| 2026-05-04 23:00 | 37.45890 | 24.67537 | 24429 ft | 458 kts | 105° |
| 2026-05-04 23:00 | 37.44889 | 24.71362 | 24737 ft | 462 kts | 105° |
| 2026-05-04 23:00 | 37.43879 | 24.75214 | 25025 ft | 465 kts | 105° |
| 2026-05-04 23:00 | 37.42861 | 24.79087 | 25312 ft | 468 kts | 105° |
| 2026-05-04 23:01 | 37.41828 | 24.82991 | 25592 ft | 472 kts | 105° |
| 2026-05-04 23:01 | 37.40785 | 24.86915 | 25869 ft | 475 kts | 105° |
| 2026-05-04 23:01 | 37.39734 | 24.90866 | 26152 ft | 478 kts | 105° |
| 2026-05-04 23:01 | 37.38677 | 24.94839 | 26415 ft | 481 kts | 105° |
| 2026-05-04 23:02 | 37.37611 | 24.98839 | 26679 ft | 484 kts | 105° |
| 2026-05-04 23:02 | 37.36541 | 25.02862 | 26979 ft | 486 kts | 106° |
| 2026-05-04 23:02 | 37.35472 | 25.06881 | 27371 ft | 485 kts | 106° |
| 2026-05-04 23:02 | 37.34396 | 25.10911 | 27655 ft | 487 kts | 106° |
| 2026-05-04 23:03 | 37.33315 | 25.14958 | 27935 ft | 489 kts | 106° |
| 2026-05-04 23:03 | 37.32229 | 25.19013 | 28282 ft | 490 kts | 106° |
| 2026-05-04 23:03 | 37.31138 | 25.23074 | 28612 ft | 491 kts | 105° |
| 2026-05-04 23:03 | 37.30044 | 25.27143 | 28928 ft | 492 kts | 105° |
| 2026-05-04 23:04 | 37.28947 | 25.31219 | 29246 ft | 494 kts | 105° |
| 2026-05-04 23:04 | 37.27844 | 25.35304 | 29599 ft | 494 kts | 106° |
| 2026-05-04 23:04 | 37.26702 | 25.39368 | 30043 ft | 493 kts | 107° |
| 2026-05-04 23:04 | 37.25469 | 25.43392 | 30355 ft | 495 kts | 109° |
| 2026-05-04 23:05 | 37.24164 | 25.47391 | 30649 ft | 495 kts | 110° |
| 2026-05-04 23:05 | 37.22825 | 25.51375 | 30948 ft | 496 kts | 110° |
| 2026-05-04 23:05 | 37.21466 | 25.55350 | 31251 ft | 496 kts | 110° |
| 2026-05-04 23:05 | 37.20101 | 25.59327 | 31549 ft | 496 kts | 110° |
| 2026-05-04 23:06 | 37.18746 | 25.63315 | 31854 ft | 496 kts | 110° |
| 2026-05-04 23:06 | 37.17406 | 25.67295 | 32229 ft | 494 kts | 110° |
| 2026-05-04 23:06 | 37.16082 | 25.71261 | 32632 ft | 492 kts | 110° |
| 2026-05-04 23:06 | 37.14768 | 25.75218 | 32984 ft | 491 kts | 110° |
| 2026-05-04 23:07 | 37.13455 | 25.79168 | 33290 ft | 491 kts | 110° |
| 2026-05-04 23:07 | 37.12138 | 25.83118 | 33592 ft | 491 kts | 110° |
| 2026-05-04 23:07 | 37.10814 | 25.87073 | 33890 ft | 492 kts | 110° |
| 2026-05-04 23:07 | 37.09486 | 25.91025 | 34167 ft | 492 kts | 110° |
| 2026-05-04 23:08 | 37.08153 | 25.94980 | 34410 ft | 493 kts | 110° |
| 2026-05-04 23:08 | 37.06819 | 25.98928 | 34675 ft | 493 kts | 111° |
| 2026-05-04 23:08 | 37.05483 | 26.02878 | 34933 ft | 493 kts | 111° |
| 2026-05-04 23:08 | 37.04148 | 26.06824 | 35176 ft | 493 kts | 111° |
| 2026-05-04 23:09 | 37.02810 | 26.10770 | 35421 ft | 493 kts | 111° |
| 2026-05-04 23:09 | 37.01470 | 26.14721 | 35605 ft | 493 kts | 111° |
| 2026-05-04 23:09 | 37.00127 | 26.18677 | 35785 ft | 495 kts | 111° |
| 2026-05-04 23:09 | 36.98785 | 26.22639 | 35980 ft | 495 kts | 111° |
| 2026-05-04 23:10 | 36.97437 | 26.26607 | 36202 ft | 496 kts | 111° |
| 2026-05-04 23:10 | 36.96093 | 26.30574 | 36429 ft | 495 kts | 111° |
| 2026-05-04 23:10 | 36.94752 | 26.34540 | 36652 ft | 495 kts | 111° |
| 2026-05-04 23:10 | 36.93409 | 26.38504 | 36852 ft | 495 kts | 111° |
| 2026-05-04 23:11 | 36.92064 | 26.42465 | 37016 ft | 496 kts | 111° |
| 2026-05-04 23:11 | 36.90712 | 26.46438 | 37055 ft | 498 kts | 111° |
| 2026-05-04 23:11 | 36.87988 | 26.54411 | 37049 ft | 499 kts | 111° |
| 2026-05-04 23:12 | 36.85260 | 26.62378 | 37048 ft | 499 kts | 112° |
| 2026-05-04 23:12 | 36.82513 | 26.70339 | 37029 ft | 499 kts | 112° |
| 2026-05-04 23:13 | 36.79775 | 26.78295 | 37010 ft | 499 kts | 112° |
| 2026-05-04 23:13 | 36.77056 | 26.86202 | 36998 ft | 499 kts | 112° |
| 2026-05-04 23:14 | 36.74308 | 26.94153 | 36998 ft | 499 kts | 112° |
| 2026-05-04 23:14 | 36.71550 | 27.02098 | 36988 ft | 499 kts | 112° |
| 2026-05-04 23:15 | 36.68785 | 27.10034 | 36988 ft | 499 kts | 112° |
| 2026-05-04 23:15 | 36.66016 | 27.17961 | 37006 ft | 499 kts | 112° |
| 2026-05-04 23:16 | 36.63243 | 27.25898 | 36997 ft | 500 kts | 112° |
| 2026-05-04 23:16 | 36.60458 | 27.33825 | 36995 ft | 500 kts | 112° |
| 2026-05-04 23:17 | 36.57670 | 27.41753 | 36982 ft | 500 kts | 112° |
| 2026-05-04 23:17 | 36.54872 | 27.49679 | 36963 ft | 500 kts | 113° |
| 2026-05-04 23:18 | 36.52063 | 27.57600 | 36962 ft | 501 kts | 113° |
| 2026-05-04 23:18 | 36.49254 | 27.65518 | 36948 ft | 501 kts | 113° |
| 2026-05-04 23:19 | 36.46435 | 27.73452 | 36926 ft | 501 kts | 113° |
| 2026-05-04 23:19 | 36.43616 | 27.81363 | 36915 ft | 501 kts | 113° |
| 2026-05-04 23:20 | 36.40788 | 27.89270 | 36904 ft | 501 kts | 113° |
| 2026-05-04 23:20 | 36.37953 | 27.97166 | 36927 ft | 501 kts | 113° |
| 2026-05-04 23:21 | 36.35117 | 28.05063 | 36927 ft | 501 kts | 113° |
| 2026-05-04 23:21 | 36.32739 | 28.13099 | 36927 ft | 500 kts | 106° |
| 2026-05-04 23:22 | 36.30654 | 28.21314 | 36917 ft | 499 kts | 107° |
| 2026-05-04 23:22 | 36.28555 | 28.29523 | 36918 ft | 499 kts | 107° |
| 2026-05-04 23:23 | 36.26445 | 28.37718 | 36908 ft | 499 kts | 107° |
| 2026-05-04 23:23 | 36.24334 | 28.45915 | 36898 ft | 499 kts | 107° |
| 2026-05-04 23:24 | 36.22210 | 28.54108 | 36896 ft | 499 kts | 107° |
| 2026-05-04 23:24 | 36.20075 | 28.62290 | 36889 ft | 500 kts | 107° |
| 2026-05-04 23:25 | 36.17942 | 28.70479 | 36892 ft | 500 kts | 107° |
| 2026-05-04 23:25 | 36.15806 | 28.78667 | 36878 ft | 500 kts | 107° |
| 2026-05-04 23:26 | 36.14019 | 28.85464 | 36876 ft | 500 kts | 107° |
| 2026-05-04 23:26 | 36.11860 | 28.93647 | 36870 ft | 500 kts | 107° |
| 2026-05-04 23:27 | 36.09702 | 29.01835 | 36866 ft | 500 kts | 108° |
| 2026-05-04 23:27 | 36.07537 | 29.10019 | 36859 ft | 501 kts | 108° |
| 2026-05-04 23:28 | 36.05362 | 29.18199 | 36855 ft | 501 kts | 108° |
| 2026-05-04 23:28 | 36.03177 | 29.26375 | 36846 ft | 501 kts | 108° |
| 2026-05-04 23:29 | 36.00987 | 29.34544 | 36850 ft | 501 kts | 108° |
| 2026-05-04 23:29 | 35.98799 | 29.42718 | 36845 ft | 501 kts | 108° |
| 2026-05-04 23:30 | 35.96630 | 29.50821 | 36870 ft | 499 kts | 108° |
| 2026-05-04 23:30 | 35.94434 | 29.58963 | 36839 ft | 491 kts | 108° |
| 2026-05-04 23:31 | 35.92327 | 29.66784 | 36837 ft | 480 kts | 108° |
| 2026-05-04 23:31 | 35.90231 | 29.74574 | 36834 ft | 478 kts | 108° |
| 2026-05-04 23:32 | 35.88127 | 29.82356 | 36832 ft | 478 kts | 108° |
| 2026-05-04 23:32 | 35.86020 | 29.90117 | 36838 ft | 477 kts | 109° |
| 2026-05-04 23:33 | 35.83909 | 29.97878 | 36832 ft | 477 kts | 109° |
| 2026-05-04 23:33 | 35.81849 | 30.05648 | 36828 ft | 477 kts | 108° |
| 2026-05-04 23:34 | 35.79908 | 30.13460 | 36821 ft | 477 kts | 107° |
| 2026-05-04 23:34 | 35.77978 | 30.21272 | 36817 ft | 477 kts | 108° |
| 2026-05-04 23:35 | 35.76012 | 30.29078 | 36818 ft | 477 kts | 108° |
| 2026-05-04 23:35 | 35.74026 | 30.36882 | 36818 ft | 478 kts | 108° |
| 2026-05-04 23:36 | 35.72035 | 30.44684 | 36817 ft | 478 kts | 108° |
| 2026-05-04 23:36 | 35.70037 | 30.52486 | 36819 ft | 478 kts | 108° |
| 2026-05-04 23:37 | 35.68042 | 30.60293 | 36817 ft | 478 kts | 108° |
| 2026-05-04 23:37 | 35.66042 | 30.68093 | 36818 ft | 478 kts | 108° |
| 2026-05-04 23:38 | 35.64030 | 30.75888 | 36813 ft | 478 kts | 109° |
| 2026-05-04 23:38 | 35.62010 | 30.83680 | 36812 ft | 478 kts | 109° |
| 2026-05-04 23:39 | 35.60005 | 30.91472 | 36812 ft | 478 kts | 108° |
| 2026-05-04 23:39 | 35.58035 | 30.99289 | 36807 ft | 478 kts | 108° |
| 2026-05-04 23:40 | 35.56090 | 31.07043 | 36810 ft | 478 kts | 108° |
| 2026-05-04 23:40 | 35.54102 | 31.14898 | 36807 ft | 478 kts | 108° |
| 2026-05-04 23:41 | 35.52109 | 31.22696 | 36802 ft | 479 kts | 109° |
| 2026-05-04 23:41 | 35.50109 | 31.30492 | 36791 ft | 479 kts | 109° |
| 2026-05-04 23:42 | 35.48112 | 31.38288 | 36797 ft | 479 kts | 109° |
| 2026-05-04 23:42 | 35.46097 | 31.46107 | 36813 ft | 485 kts | 109° |
| 2026-05-04 23:43 | 35.44048 | 31.54019 | 36802 ft | 495 kts | 109° |
| 2026-05-04 23:43 | 35.41948 | 31.62134 | 36811 ft | 503 kts | 109° |
| 2026-05-04 23:44 | 35.39820 | 31.70333 | 36802 ft | 505 kts | 109° |
| 2026-05-04 23:44 | 35.37682 | 31.78544 | 36802 ft | 505 kts | 110° |
| 2026-05-04 23:45 | 35.35534 | 31.86755 | 36797 ft | 506 kts | 110° |
| 2026-05-04 23:45 | 35.34460 | 31.90856 | 36300 ft | 506 kts | 110° |
| 2026-05-04 23:45 | 35.33382 | 31.94960 | 35672 ft | 506 kts | 110° |
| 2026-05-04 23:46 | 35.32301 | 31.99076 | 34893 ft | 511 kts | 110° |
| 2026-05-04 23:46 | 35.31207 | 32.03225 | 34018 ft | 512 kts | 110° |
| 2026-05-04 23:46 | 35.30116 | 32.07362 | 33052 ft | 511 kts | 110° |
| 2026-05-04 23:46 | 35.29028 | 32.11509 | 32158 ft | 511 kts | 110° |
| 2026-05-04 23:47 | 35.27942 | 32.15659 | 31361 ft | 512 kts | 110° |
| 2026-05-04 23:47 | 35.26857 | 32.19809 | 30588 ft | 511 kts | 110° |
| 2026-05-04 23:47 | 35.25776 | 32.23952 | 29831 ft | 511 kts | 109° |
| 2026-05-04 23:47 | 35.24696 | 32.28091 | 29032 ft | 511 kts | 109° |
| 2026-05-04 23:48 | 35.23616 | 32.32228 | 28278 ft | 511 kts | 109° |
| 2026-05-04 23:48 | 35.22529 | 32.36374 | 27537 ft | 512 kts | 110° |
| 2026-05-04 23:48 | 35.21435 | 32.40521 | 26823 ft | 512 kts | 110° |
| 2026-05-04 23:48 | 35.20336 | 32.44666 | 26127 ft | 512 kts | 110° |
| 2026-05-04 23:49 | 35.19236 | 32.48807 | 25449 ft | 512 kts | 110° |
| 2026-05-04 23:49 | 35.18136 | 32.52944 | 24783 ft | 512 kts | 110° |
| 2026-05-04 23:49 | 35.17039 | 32.57076 | 24141 ft | 511 kts | 110° |
| 2026-05-04 23:49 | 35.15948 | 32.61186 | 23510 ft | 506 kts | 110° |
| 2026-05-04 23:50 | 35.14868 | 32.65247 | 22769 ft | 498 kts | 110° |
| 2026-05-04 23:50 | 35.13806 | 32.69249 | 22031 ft | 492 kts | 110° |
| 2026-05-04 23:50 | 35.12756 | 32.73207 | 21312 ft | 487 kts | 110° |
| 2026-05-04 23:50 | 35.11718 | 32.77107 | 20597 ft | 473 kts | 110° |
| 2026-05-04 23:51 | 35.10733 | 32.80793 | 19920 ft | 452 kts | 110° |
| 2026-05-04 23:51 | 35.09762 | 32.84408 | 19241 ft | 433 kts | 110° |
| 2026-05-04 23:51 | 35.08849 | 32.87797 | 18594 ft | 418 kts | 111° |
| 2026-05-04 23:51 | 35.07952 | 32.91117 | 17918 ft | 406 kts | 111° |
| 2026-05-04 23:52 | 35.07078 | 32.94343 | 17190 ft | 395 kts | 111° |
| 2026-05-04 23:52 | 35.06205 | 32.97473 | 16475 ft | 385 kts | 112° |
| 2026-05-04 23:52 | 35.05329 | 33.00525 | 15774 ft | 377 kts | 113° |
| 2026-05-04 23:52 | 35.04460 | 33.03512 | 15096 ft | 370 kts | 113° |
| 2026-05-04 23:53 | 35.03604 | 33.06447 | 14428 ft | 365 kts | 113° |
| 2026-05-04 23:53 | 35.02759 | 33.09350 | 13772 ft | 361 kts | 113° |
| 2026-05-04 23:53 | 35.01924 | 33.12224 | 13068 ft | 358 kts | 113° |
| 2026-05-04 23:53 | 35.01101 | 33.15063 | 12355 ft | 353 kts | 113° |
| 2026-05-04 23:54 | 35.00295 | 33.17854 | 11723 ft | 345 kts | 113° |
| 2026-05-04 23:54 | 34.99509 | 33.20585 | 11134 ft | 337 kts | 114° |
| 2026-05-04 23:54 | 34.98739 | 33.23262 | 10557 ft | 330 kts | 114° |
| 2026-05-04 23:54 | 34.97984 | 33.25881 | 9997 ft | 324 kts | 114° |
| 2026-05-04 23:55 | 34.97245 | 33.28449 | 9409 ft | 319 kts | 114° |
| 2026-05-04 23:55 | 34.96529 | 33.30983 | 8777 ft | 314 kts | 114° |
| 2026-05-04 23:55 | 34.95676 | 33.36130 | 7491 ft | 314 kts | 82° |
| 2026-05-04 23:56 | 34.96398 | 33.38616 | 6866 ft | 311 kts | 59° |
| 2026-05-04 23:56 | 34.97509 | 33.40853 | 6252 ft | 307 kts | 54° |
| 2026-05-04 23:56 | 34.98743 | 33.42965 | 5603 ft | 304 kts | 52° |
| 2026-05-04 23:56 | 34.99988 | 33.45031 | 5062 ft | 299 kts | 51° |
| 2026-05-04 23:57 | 35.01192 | 33.47045 | 4911 ft | 288 kts | 51° |
| 2026-05-04 23:57 | 35.02334 | 33.48961 | 4925 ft | 271 kts | 52° |
| 2026-05-04 23:57 | 35.03439 | 33.50796 | 4921 ft | 267 kts | 52° |
| 2026-05-04 23:57 | 35.04544 | 33.52619 | 4923 ft | 267 kts | 52° |
| 2026-05-04 23:58 | 35.05646 | 33.54434 | 4924 ft | 266 kts | 51° |
| 2026-05-04 23:58 | 35.06733 | 33.56232 | 4921 ft | 266 kts | 52° |
| 2026-05-04 23:58 | 35.07829 | 33.58046 | 4924 ft | 265 kts | 51° |
| 2026-05-04 23:58 | 35.08922 | 33.59863 | 4922 ft | 266 kts | 52° |
| 2026-05-04 23:59 | 35.10019 | 33.61679 | 4921 ft | 266 kts | 51° |
| 2026-05-04 23:59 | 35.11119 | 33.63498 | 4922 ft | 266 kts | 51° |
| 2026-05-04 23:59 | 35.12219 | 33.65320 | 4924 ft | 266 kts | 51° |
| 2026-05-04 23:59 | 35.13314 | 33.67146 | 4928 ft | 266 kts | 51° |
| 2026-05-05 00:00 | 35.14408 | 33.68970 | 4912 ft | 266 kts | 51° |
| 2026-05-05 00:00 | 35.14778 | 33.69586 | 4919 ft | 266 kts | 52° |
| 2026-05-05 00:00 | 35.16686 | 33.72549 | 4934 ft | 267 kts | 45° |
| 2026-05-05 00:00 | 35.17957 | 33.74195 | 4927 ft | 266 kts | 44° |
| 2026-05-05 00:01 | 35.19234 | 33.75825 | 4931 ft | 265 kts | 44° |
| 2026-05-05 00:01 | 35.20506 | 33.77445 | 4926 ft | 264 kts | 44° |
| 2026-05-05 00:01 | 35.21781 | 33.79064 | 4927 ft | 264 kts | 44° |
| 2026-05-05 00:01 | 35.23058 | 33.80682 | 4941 ft | 265 kts | 43° |
| 2026-05-05 00:02 | 35.24255 | 33.82396 | 4931 ft | 266 kts | 59° |
| 2026-05-05 00:02 | 35.24860 | 33.84509 | 4923 ft | 264 kts | 86° |
| 2026-05-05 00:02 | 35.24690 | 33.86702 | 4903 ft | 258 kts | 113° |
| 2026-05-05 00:02 | 35.23833 | 33.88543 | 4727 ft | 241 kts | 140° |
| 2026-05-05 00:03 | 35.22578 | 33.89720 | 4679 ft | 217 kts | 162° |
| 2026-05-05 00:03 | 35.21215 | 33.90233 | 4639 ft | 195 kts | 182° |
| 2026-05-05 00:03 | 35.19929 | 33.90194 | 4593 ft | 179 kts | 198° |
| 2026-05-05 00:03 | 35.18770 | 33.89717 | 4537 ft | 174 kts | 212° |
| 2026-05-05 00:04 | 35.17724 | 33.88973 | 4353 ft | 173 kts | 215° |
| 2026-05-05 00:04 | 35.16688 | 33.88228 | 4179 ft | 171 kts | 215° |
| 2026-05-05 00:04 | 35.15672 | 33.87497 | 4002 ft | 168 kts | 215° |
| 2026-05-05 00:04 | 35.14670 | 33.86777 | 3828 ft | 166 kts | 215° |
| 2026-05-05 00:05 | 35.13684 | 33.86068 | 3641 ft | 164 kts | 215° |
| 2026-05-05 00:05 | 35.12707 | 33.85363 | 3470 ft | 162 kts | 215° |
| 2026-05-05 00:05 | 35.11740 | 33.84666 | 3283 ft | 161 kts | 215° |
| 2026-05-05 00:05 | 35.10783 | 33.83978 | 3116 ft | 158 kts | 216° |
| 2026-05-05 00:06 | 35.09838 | 33.83300 | 2966 ft | 157 kts | 216° |
| 2026-05-05 00:06 | 35.08901 | 33.82627 | 2811 ft | 156 kts | 216° |
| 2026-05-05 00:06 | 35.07968 | 33.81956 | 2658 ft | 155 kts | 216° |
| 2026-05-05 00:06 | 35.07050 | 33.81295 | 2507 ft | 152 kts | 216° |
| 2026-05-05 00:07 | 35.06141 | 33.80642 | 2379 ft | 151 kts | 215° |
| 2026-05-05 00:07 | 35.05235 | 33.79990 | 2252 ft | 151 kts | 215° |
| 2026-05-05 00:07 | 35.04343 | 33.79347 | 2118 ft | 151 kts | 215° |
| 2026-05-05 00:07 | 35.03424 | 33.78686 | 1986 ft | 152 kts | 214° |
| 2026-05-05 00:08 | 35.02511 | 33.78030 | 1861 ft | 152 kts | 213° |
| 2026-05-05 00:08 | 35.01610 | 33.77384 | 1734 ft | 152 kts | 213° |
| 2026-05-05 00:08 | 35.00690 | 33.76724 | 1608 ft | 151 kts | 213° |
| 2026-05-05 00:08 | 34.99798 | 33.76084 | 1519 ft | 150 kts | 213° |
| 2026-05-05 00:09 | 34.98898 | 33.75438 | 1450 ft | 151 kts | 213° |
| 2026-05-05 00:09 | 34.97991 | 33.74787 | 1429 ft | 152 kts | 213° |
| 2026-05-05 00:09 | 34.97094 | 33.74113 | 1427 ft | 151 kts | 221° |
| 2026-05-05 00:09 | 34.96316 | 33.73268 | 1451 ft | 150 kts | 224° |
| 2026-05-05 00:10 | 34.95805 | 33.72673 | 1445 ft | 150 kts | 224° |
| 2026-05-05 00:10 | 34.94820 | 33.71494 | 1431 ft | 150 kts | 224° |
| 2026-05-05 00:10 | 34.94319 | 33.70887 | 1401 ft | 150 kts | 226° |
| 2026-05-05 00:10 | 34.93606 | 33.70019 | 1319 ft | 138 kts | 228° |
| 2026-05-05 00:11 | 34.92941 | 33.69207 | 1187 ft | 133 kts | 228° |
| 2026-05-05 00:11 | 34.92296 | 33.68418 | 1069 ft | 132 kts | 227° |
| 2026-05-05 00:11 | 34.91636 | 33.67609 | 910 ft | 138 kts | 225° |
| 2026-05-05 00:11 | 34.90953 | 33.66773 | 748 ft | 138 kts | 226° |
| 2026-05-05 00:12 | 34.90299 | 33.65973 | 594 ft | 132 kts | 226° |
| 2026-05-05 00:12 | 34.89656 | 33.65186 | 450 ft | 130 kts | 226° |
| 2026-05-05 00:12 | 34.89018 | 33.64405 | 283 ft | 129 kts | 225° |
| 2026-05-05 00:12 | 34.88391 | 33.63641 | 107 ft | 127 kts | 225° |
| 2026-05-05 00:13 | 34.87788 | 33.62894 | 17 ft | 113 kts | 226° |
| 2026-05-05 00:13 | 34.87406 | 33.62428 | 14 ft | 41 kts | 226° |
| 2026-05-05 00:13 | 34.87248 | 33.62236 | 14 ft | 28 kts | 225° |
| 2026-05-05 00:13 | 34.87112 | 33.62067 | 16 ft | 27 kts | 225° |
| 2026-05-05 00:14 | 34.87004 | 33.61894 | 16 ft | 24 kts | 244° |
| 2026-05-05 00:14 | 34.86963 | 33.61755 | 16 ft | 6 kts | 256° |
| 2026-05-05 00:14 | 34.86962 | 33.61750 | 16 ft | 0 kts | 256° |
| 2026-05-05 00:15 | 34.86959 | 33.61734 | 17 ft | 4 kts | 255° |
| 2026-05-05 00:15 | 34.86949 | 33.61692 | 15 ft | 7 kts | 255° |
| 2026-05-05 00:15 | 34.86937 | 33.61634 | 15 ft | 2 kts | 255° |
| 2026-05-05 00:15 | 34.86930 | 33.61603 | 16 ft | 5 kts | 254° |
| 2026-05-05 00:16 | 34.86918 | 33.61552 | 15 ft | 7 kts | 253° |
| 2026-05-05 00:16 | 34.86902 | 33.61484 | 16 ft | 9 kts | 254° |
| 2026-05-05 00:16 | 34.86881 | 33.61403 | 15 ft | 11 kts | 269° |
| 2026-05-05 00:16 | 34.86928 | 33.61324 | 16 ft | 13 kts | 315° |
| 2026-05-05 00:17 | 34.86991 | 33.61248 | 15 ft | 13 kts | 315° |
| 2026-05-05 00:17 | 34.87058 | 33.61167 | 15 ft | 10 kts | 316° |
| 2026-05-05 00:17 | 34.87069 | 33.61117 | 15 ft | 7 kts | 243° |
| 2026-05-05 00:17 | 34.87042 | 33.61069 | 15 ft | 6 kts | 232° |
| 2026-05-05 00:18 | 34.87028 | 33.61051 | 15 ft | 3 kts | 225° |
| 2026-05-05 00:18 | 34.87025 | 33.61048 | 15 ft | 0 kts | 224° |